Time;durP1;ratioP1;P1;durP2;ratioP2;P2;SDS_P1;SDS_P2;PMS_P1;PMS_P2;Temp;Humidity;BMP_temperature;BMP_pressure;BME280_temperature;BME280_humidity;BME280_pressure;Samples;Min_cycle;Max_cycle;Signal;HPM_P1;HPM_P2
2023/04/15 00:01:12;;;;;;;5.28;2.83;;;;;;;10.70;91.84;95728.19;5072786;28;20044;-66
2023/04/15 00:03:39;;;;;;;9.32;3.25;;;;;;;10.62;91.47;95720.72;5072880;28;20056;-68
2023/04/15 00:06:06;;;;;;;12.25;3.83;;;;;;;10.57;91.40;95715.72;5072836;28;20537;-67
2023/04/15 00:08:33;;;;;;;8.90;3.15;;;;;;;10.62;91.03;95720.72;5072770;28;20048;-67
2023/04/15 00:11:02;;;;;;;16.27;3.22;;;;;;;10.66;90.63;95708.34;5072669;28;20505;-65
2023/04/15 00:13:29;;;;;;;13.70;3.55;;;;;;;10.59;90.34;95705.19;5072705;28;20094;-66
2023/04/15 00:15:58;;;;;;;7.78;3.88;;;;;;;10.52;90.83;95716.91;5072637;28;20052;-68
2023/04/15 00:18:25;;;;;;;7.80;3.33;;;;;;;10.52;90.98;95730.81;5072675;28;20048;-67
2023/04/15 00:20:53;;;;;;;10.95;3.28;;;;;;;10.53;90.65;95734.28;5072669;28;20531;-67
2023/04/15 00:23:20;;;;;;;8.95;3.50;;;;;;;10.51;90.74;95713.47;5072749;28;20123;-66
2023/04/15 00:25:47;;;;;;;15.32;3.13;;;;;;;10.53;90.50;95724.66;5072826;28;20048;-66
2023/04/15 00:28:14;;;;;;;8.95;3.20;;;;;;;10.45;90.05;95755.56;5072619;28;20049;-67
2023/04/15 00:30:42;;;;;;;6.90;2.72;;;;;;;10.41;90.98;95785.41;5072470;28;20557;-68
2023/04/15 00:33:10;;;;;;;7.57;3.28;;;;;;;10.41;90.84;95754.03;5072533;28;20147;-68
2023/04/15 00:35:38;;;;;;;10.35;2.63;;;;;;;10.31;91.01;95720.50;5072487;28;20041;-65
2023/04/15 00:38:06;;;;;;;11.70;3.90;;;;;;;10.22;91.56;95720.94;5072523;28;20136;-65
2023/04/15 00:40:34;;;;;;;10.70;3.53;;;;;;;10.19;92.08;95706.28;5072502;28;20044;-67
2023/04/15 00:43:02;;;;;;;9.18;3.50;;;;;;;10.18;92.28;95711.56;5072472;28;20048;-65
2023/04/15 00:45:30;;;;;;;10.20;3.88;;;;;;;10.22;92.28;95715.72;5072418;28;20053;-66
2023/04/15 00:48:00;;;;;;;8.02;3.05;;;;;;;10.20;91.96;95725.41;5072169;28;20053;-66
2023/04/15 00:50:29;;;;;;;10.82;3.45;;;;;;;10.14;91.95;95736.19;5072348;28;20052;-68
2023/04/15 00:52:56;;;;;;;12.63;3.35;;;;;;;10.15;92.14;95743.94;5072349;28;20041;-67
2023/04/15 00:55:24;;;;;;;6.95;3.30;;;;;;;10.22;91.93;95744.47;5074953;28;20076;-69
2023/04/15 00:57:52;;;;;;;8.00;3.83;;;;;;;10.24;92.29;95747.88;5075979;28;20063;-67
2023/04/15 01:00:21;;;;;;;16.77;3.03;;;;;;;10.30;91.87;95750.16;5075896;28;20132;-69
2023/04/15 01:02:48;;;;;;;8.45;3.25;;;;;;;10.29;91.60;95729.34;5075913;28;20080;-66
2023/04/15 01:05:17;;;;;;;11.90;3.13;;;;;;;10.21;91.95;95708.81;5075820;28;20479;-66
2023/04/15 01:07:47;;;;;;;12.85;3.13;;;;;;;10.15;92.18;95691.69;5075883;28;20049;-67
2023/04/15 01:10:14;;;;;;;11.85;4.15;;;;;;;10.05;93.57;95686.03;5075617;28;20040;-69
2023/04/15 01:12:41;;;;;;;8.88;3.38;;;;;;;10.05;93.94;95678.19;5075664;28;20049;-67
2023/04/15 01:15:09;;;;;;;14.88;3.28;;;;;;;10.00;93.81;95675.00;5075574;28;20110;-68
2023/04/15 01:17:37;;;;;;;7.60;3.58;;;;;;;10.01;94.16;95662.75;5075568;28;20049;-68
2023/04/15 01:20:05;;;;;;;11.40;3.72;;;;;;;10.08;94.17;95667.59;5075568;28;20080;-66
2023/04/15 01:22:34;;;;;;;7.90;3.28;;;;;;;10.10;94.23;95670.13;5075605;28;20124;-67
2023/04/15 01:25:10;;;;;;;4.90;3.30;;;;;;;10.14;93.47;95683.91;5075469;28;20045;-67
2023/04/15 01:27:41;;;;;;;9.55;3.42;;;;;;;10.15;93.16;95690.81;5075517;28;20124;-66
2023/04/15 01:30:10;;;;;;;11.10;3.65;;;;;;;10.16;93.36;95700.34;5075269;28;20052;-68
2023/04/15 01:32:37;;;;;;;7.38;3.40;;;;;;;10.22;93.38;95715.72;5075389;28;20048;-67
2023/04/15 01:35:06;;;;;;;11.32;3.85;;;;;;;10.26;93.19;95711.19;5075440;28;20050;-66
2023/04/15 01:37:34;;;;;;;11.82;4.13;;;;;;;10.24;93.32;95708.66;5075264;28;20470;-68
2023/04/15 01:40:02;;;;;;;9.95;3.83;;;;;;;10.30;93.71;95721.41;5075203;28;20433;-68
2023/04/15 01:42:29;;;;;;;15.70;3.40;;;;;;;10.36;92.86;95742.00;5075112;28;20167;-65
2023/04/15 01:44:58;;;;;;;10.25;3.30;;;;;;;10.31;92.73;95751.88;5075171;28;20049;-70
2023/04/15 01:47:26;;;;;;;9.38;3.53;;;;;;;10.33;92.95;95752.63;5074910;28;20048;-69
2023/04/15 01:49:53;;;;;;;14.05;3.83;;;;;;;10.26;92.76;95719.03;5074939;28;20045;-69
2023/04/15 01:52:20;;;;;;;13.32;4.28;;;;;;;10.11;93.63;95690.97;5074884;28;20140;-67
2023/04/15 01:54:48;;;;;;;8.82;4.13;;;;;;;10.04;94.80;95671.28;5075009;28;20052;-69
2023/04/15 01:57:15;;;;;;;7.78;4.10;;;;;;;9.93;95.47;95665.78;5074795;28;20048;-66
2023/04/15 01:59:42;;;;;;;11.32;4.63;;;;;;;9.96;96.23;95671.66;5074847;28;20421;-65
2023/04/15 02:02:11;;;;;;;12.82;4.25;;;;;;;10.06;96.15;95679.88;5074728;28;20106;-69
2023/04/15 02:04:38;;;;;;;10.52;3.97;;;;;;;10.11;95.26;95687.50;5074709;28;20044;-69
2023/04/15 02:07:05;;;;;;;17.30;4.50;;;;;;;10.14;95.01;95718.72;5074781;28;20110;-65
2023/04/15 02:09:33;;;;;;;13.55;3.92;;;;;;;10.22;94.80;95754.94;5074564;28;20098;-68
2023/04/15 02:12:00;;;;;;;8.00;4.00;;;;;;;10.26;94.60;95776.53;5074541;28;20059;-68
2023/04/15 02:14:27;;;;;;;17.10;4.30;;;;;;;10.30;94.45;95783.31;5074606;28;20132;-66
2023/04/15 02:16:54;;;;;;;10.90;4.07;;;;;;;10.31;94.77;95778.00;5074382;28;20044;-69
2023/04/15 02:19:23;;;;;;;9.93;4.60;;;;;;;10.36;94.72;95783.00;5074447;28;20049;-66
2023/04/15 02:21:49;;;;;;;12.30;4.30;;;;;;;10.41;94.50;95794.06;5074298;28;20051;-68
2023/04/15 02:24:17;;;;;;;8.48;4.40;;;;;;;10.47;94.60;95796.41;5074216;28;20041;-67
2023/04/15 02:26:44;;;;;;;11.27;3.72;;;;;;;10.54;94.52;95796.94;5074267;28;20046;-66
2023/04/15 02:29:12;;;;;;;8.85;4.00;;;;;;;10.61;94.01;95789.66;5074289;28;20075;-69
2023/04/15 02:31:40;;;;;;;6.80;3.67;;;;;;;10.61;93.90;95798.34;5074151;28;20139;-68
2023/04/15 02:34:08;;;;;;;8.13;3.58;;;;;;;10.64;93.39;95783.41;5074122;28;20048;-67
2023/04/15 02:36:38;;;;;;;7.30;3.60;;;;;;;10.64;93.29;95770.34;5074046;28;20048;-66
2023/04/15 02:39:04;;;;;;;12.90;3.58;;;;;;;10.69;93.03;95763.13;5074024;28;20048;-69
2023/04/15 02:41:31;;;;;;;11.25;3.33;;;;;;;10.69;92.96;95750.88;5074039;28;20048;-67
2023/04/15 02:43:59;;;;;;;10.07;4.15;;;;;;;10.69;92.53;95742.19;5073878;28;20106;-66
2023/04/15 02:46:26;;;;;;;11.73;3.75;;;;;;;10.70;92.57;95731.66;5073616;28;20053;-66
2023/04/15 02:48:53;;;;;;;8.73;3.22;;;;;;;10.74;92.42;95714.03;5073765;28;20535;-70
2023/04/15 02:51:22;;;;;;;12.25;3.80;;;;;;;10.68;92.25;95698.63;5073734;28;20060;-68
2023/04/15 02:53:51;;;;;;;9.43;3.72;;;;;;;10.64;92.84;95704.97;5073805;28;20044;-70
2023/04/15 02:56:18;;;;;;;13.95;4.30;;;;;;;10.59;92.79;95713.91;5073630;28;20055;-69
2023/04/15 02:58:46;;;;;;;12.20;4.30;;;;;;;10.51;93.30;95710.84;5073603;28;20041;-68
2023/04/15 03:01:13;;;;;;;14.35;3.85;;;;;;;10.55;93.55;95728.06;5073589;28;20145;-69
2023/04/15 03:03:40;;;;;;;9.98;3.72;;;;;;;10.55;93.04;95740.28;5073542;28;20461;-67
2023/04/15 03:06:07;;;;;;;8.00;3.88;;;;;;;10.53;92.94;95742.16;5073520;28;20128;-66
2023/04/15 03:08:35;;;;;;;8.85;3.75;;;;;;;10.58;93.11;95748.81;5073532;28;20076;-70
2023/04/15 03:11:05;;;;;;;11.65;3.97;;;;;;;10.63;93.17;95743.38;5073964;28;20056;-67
2023/04/15 03:13:32;;;;;;;5.43;3.28;;;;;;;10.68;92.95;95750.94;5073592;28;20549;-67
2023/04/15 03:15:59;;;;;;;8.57;3.47;;;;;;;10.72;92.89;95745.47;5073508;28;20051;-68
2023/04/15 03:18:26;;;;;;;13.38;3.55;;;;;;;10.69;92.37;95737.78;5073060;28;20049;-69
2023/04/15 03:20:53;;;;;;;11.20;3.70;;;;;;;10.59;93.18;95736.56;5073333;28;20395;-67
2023/04/15 03:23:20;;;;;;;8.65;4.70;;;;;;;10.49;93.64;95738.81;5073320;28;20469;-69
2023/04/15 03:25:47;;;;;;;12.20;5.82;;;;;;;10.48;94.13;95745.81;5073345;28;20091;-69
2023/04/15 03:28:16;;;;;;;12.65;5.03;;;;;;;10.49;94.60;95759.75;5073267;28;20041;-68
2023/04/15 03:30:43;;;;;;;15.18;4.47;;;;;;;10.52;94.48;95761.34;5073074;28;20127;-69
2023/04/15 03:33:10;;;;;;;48.50;5.28;;;;;;;10.58;94.46;95766.28;5073140;28;20053;-67
2023/04/15 03:35:38;;;;;;;7.50;3.95;;;;;;;10.58;94.59;95769.75;5073176;28;20588;-69
2023/04/15 03:38:05;;;;;;;6.40;3.60;;;;;;;10.59;94.26;95763.59;5073359;28;20052;-69
2023/04/15 03:40:32;;;;;;;9.70;3.72;;;;;;;10.63;93.75;95763.44;5073063;28;20044;-67
2023/04/15 03:43:00;;;;;;;10.27;4.50;;;;;;;10.58;93.58;95761.03;5073045;28;20056;-67
2023/04/15 03:45:29;;;;;;;9.90;4.10;;;;;;;10.62;93.90;95754.72;5072956;28;20128;-67
2023/04/15 03:47:56;;;;;;;9.88;4.75;;;;;;;10.60;93.55;95753.97;5072784;28;20573;-69
2023/04/15 03:50:23;;;;;;;14.57;5.47;;;;;;;10.51;94.31;95749.22;5072987;28;20516;-65
2023/04/15 03:52:50;;;;;;;14.32;5.97;;;;;;;10.44;94.47;95746.84;5072829;28;20486;-66
2023/04/15 03:55:18;;;;;;;13.10;4.85;;;;;;;10.40;95.09;95747.09;5073061;28;20053;-66
2023/04/15 03:57:46;;;;;;;15.70;5.00;;;;;;;10.36;95.52;95759.47;5072898;28;20486;-68
2023/04/15 04:00:14;;;;;;;10.48;4.93;;;;;;;10.32;95.42;95774.47;5072956;28;20102;-66
2023/04/15 04:02:43;;;;;;;14.43;5.75;;;;;;;10.43;96.02;95799.22;5073021;28;20068;-66
2023/04/15 04:05:10;;;;;;;9.35;4.68;;;;;;;10.47;95.94;95812.09;5072878;28;20557;-70
2023/04/15 04:07:37;;;;;;;8.20;4.78;;;;;;;10.55;95.93;95818.72;5072983;28;20057;-69
2023/04/15 04:10:05;;;;;;;8.63;4.45;;;;;;;10.64;95.49;95817.41;5072944;28;20448;-65
2023/04/15 04:12:32;;;;;;;14.55;5.72;;;;;;;10.71;94.90;95824.88;5072730;28;20048;-70
2023/04/15 04:14:59;;;;;;;15.60;5.40;;;;;;;10.79;94.43;95834.97;5072798;28;20086;-69
2023/04/15 04:17:26;;;;;;;14.00;4.28;;;;;;;10.88;94.20;95838.91;5072894;28;20049;-67
2023/04/15 04:19:55;;;;;;;11.77;4.95;;;;;;;10.81;93.60;95835.72;5072778;28;20072;-69
2023/04/15 04:22:23;;;;;;;8.13;4.97;;;;;;;10.83;93.28;95838.25;5072713;28;20044;-70
2023/04/15 04:24:50;;;;;;;12.82;5.38;;;;;;;10.81;93.46;95825.25;5072828;28;20052;-66
2023/04/15 04:27:17;;;;;;;7.47;4.72;;;;;;;10.89;93.37;95826.66;5072680;28;20140;-67
2023/04/15 04:29:46;;;;;;;12.38;5.22;;;;;;;10.93;93.41;95815.94;5074417;28;20056;-68
2023/04/15 04:32:13;;;;;;;12.13;6.57;;;;;;;10.98;93.39;95811.34;5076557;28;20056;-68
2023/04/15 04:34:40;;;;;;;71.55;41.85;;;;;;;11.01;93.57;95810.31;5076564;28;20051;-67
2023/04/15 04:37:09;;;;;;;11.65;7.25;;;;;;;10.92;93.60;95809.03;5076383;28;20123;-68
2023/04/15 04:39:36;;;;;;;9.35;6.72;;;;;;;11.08;95.09;95806.47;5076334;28;20048;-70
2023/04/15 04:42:03;;;;;;;11.98;6.22;;;;;;;11.24;94.75;95793.44;5076199;28;20581;-69
2023/04/15 04:44:30;;;;;;;10.48;6.93;;;;;;;11.52;93.70;95793.72;5076470;28;20088;-68
2023/04/15 04:46:57;;;;;;;9.13;6.38;;;;;;;11.70;91.02;95806.75;5075938;28;20045;-66
2023/04/15 04:49:25;;;;;;;12.32;6.88;;;;;;;11.81;89.21;95809.66;5076205;28;20135;-69
2023/04/15 04:51:52;;;;;;;11.25;7.15;;;;;;;11.81;88.85;95814.91;5075963;28;20045;-64
2023/04/15 04:54:21;;;;;;;16.52;8.85;;;;;;;11.78;88.93;95815.06;5076146;28;20496;-65
2023/04/15 04:56:48;;;;;;;11.93;6.40;;;;;;;11.77;88.38;95818.59;5076342;28;20127;-67
2023/04/15 04:59:16;;;;;;;10.23;5.65;;;;;;;11.67;88.94;95833.97;5076111;28;20502;-66
2023/04/15 05:01:44;;;;;;;14.82;6.18;;;;;;;11.64;89.03;95839.38;5076138;28;20080;-67
2023/04/15 05:04:12;;;;;;;15.10;7.32;;;;;;;11.56;89.59;95828.47;5075923;28;20052;-67
2023/04/15 05:06:39;;;;;;;11.80;8.32;;;;;;;11.49;90.36;95833.16;5075943;28;20048;-65
2023/04/15 05:09:06;;;;;;;11.68;8.00;;;;;;;11.42;90.97;95821.34;5075723;28;20048;-65
2023/04/15 05:11:35;;;;;;;9.60;7.82;;;;;;;11.28;90.90;95827.28;5075791;28;20472;-66
2023/04/15 05:14:03;;;;;;;17.02;9.27;;;;;;;11.29;91.87;95834.25;5075689;28;20075;-66
2023/04/15 05:16:30;;;;;;;13.45;7.68;;;;;;;11.18;92.69;95827.78;5075804;28;20051;-64
2023/04/15 05:18:58;;;;;;;14.18;7.57;;;;;;;11.04;93.56;95817.16;5075602;28;20048;-68
2023/04/15 05:21:32;;;;;;;15.35;8.30;;;;;;;11.06;94.17;95812.72;5075576;28;20047;-65
2023/04/15 05:24:01;;;;;;;18.05;8.93;;;;;;;10.90;94.62;95816.13;5075547;28;20048;-66
2023/04/15 05:26:29;;;;;;;12.02;8.95;;;;;;;10.84;95.78;95832.13;5075472;28;20049;-65
2023/04/15 05:29:00;;;;;;;16.42;9.13;;;;;;;10.80;95.77;95835.81;5075480;28;20052;-68
2023/04/15 05:31:26;;;;;;;;;;;;;;;10.79;96.04;95837.59;5076068;28;20045;-69
2023/04/15 05:33:54;;;;;;;10.23;6.60;;;;;;;10.82;95.99;95834.81;5075280;28;20400;-66
2023/04/15 05:36:21;;;;;;;12.68;7.05;;;;;;;10.78;96.01;95835.91;5075380;28;20379;-67
2023/04/15 05:38:50;;;;;;;16.55;7.38;;;;;;;10.85;95.73;95825.97;5075292;28;20048;-65
2023/04/15 05:41:18;;;;;;;10.57;6.80;;;;;;;11.17;94.90;95818.22;5074834;28;20047;-66
2023/04/15 05:43:46;;;;;;;11.65;6.78;;;;;;;11.44;94.16;95820.31;5075109;28;20049;-69
2023/04/15 05:46:14;;;;;;;14.38;6.30;;;;;;;11.63;91.66;95819.34;5075155;28;20045;-69
2023/04/15 05:48:42;;;;;;;9.70;6.45;;;;;;;11.79;89.09;95832.47;5075115;28;20052;-67
2023/04/15 05:51:10;;;;;;;14.15;6.35;;;;;;;12.08;87.82;95834.44;5075064;28;20478;-64
2023/04/15 05:53:39;;;;;;;14.48;6.95;;;;;;;12.27;89.22;95834.25;5074959;28;20091;-68
2023/04/15 05:56:08;;;;;;;7.70;5.80;;;;;;;12.99;89.38;95838.06;5074959;28;20044;-68
2023/04/15 05:58:37;;;;;;;11.68;5.50;;;;;;;13.70;82.48;95851.38;5074909;28;20047;-66
2023/04/15 06:01:06;;;;;;;7.53;4.82;;;;;;;14.20;78.15;95847.47;5075094;28;20044;-66
2023/04/15 06:03:36;;;;;;;10.93;4.72;;;;;;;14.66;74.39;95854.19;5074852;28;20051;-68
2023/04/15 06:06:03;;;;;;;8.75;4.00;;;;;;;14.83;73.16;95858.38;5074732;28;20079;-67
2023/04/15 06:08:31;;;;;;;7.15;4.45;;;;;;;14.90;72.58;95880.72;5074947;28;20044;-64
2023/04/15 06:10:59;;;;;;;7.70;4.72;;;;;;;14.89;71.85;95888.72;5074738;28;20048;-68
2023/04/15 06:13:27;;;;;;;8.27;5.03;;;;;;;14.90;72.52;95882.50;5074415;28;20410;-66
2023/04/15 06:15:55;;;;;;;10.70;5.15;;;;;;;14.81;72.66;95886.56;5074505;28;20045;-68
2023/04/15 06:18:23;;;;;;;9.65;6.07;;;;;;;14.69;75.74;95893.44;5074486;28;20048;-67
2023/04/15 06:20:53;;;;;;;8.95;5.80;;;;;;;14.59;75.69;95884.47;5074512;28;20083;-66
2023/04/15 06:23:21;;;;;;;6.38;4.75;;;;;;;14.44;74.24;95887.16;5074359;28;20132;-66
2023/04/15 06:25:48;;;;;;;10.68;5.75;;;;;;;14.40;74.64;95888.28;5074356;28;20052;-64
2023/04/15 06:28:15;;;;;;;8.98;5.47;;;;;;;14.48;74.10;95893.91;5074365;28;20052;-66
2023/04/15 06:30:43;;;;;;;13.65;7.90;;;;;;;14.45;76.30;95901.16;5074256;28;20406;-66
2023/04/15 06:33:10;;;;;;;13.07;8.10;;;;;;;14.50;76.75;95904.31;5074156;28;20049;-69
2023/04/15 06:35:39;;;;;;;9.85;6.38;;;;;;;14.65;75.87;95908.63;5074218;28;20051;-67
2023/04/15 06:38:08;;;;;;;12.35;7.50;;;;;;;14.60;75.29;95912.50;5074120;28;20051;-68
2023/04/15 06:40:35;;;;;;;13.68;8.48;;;;;;;14.34;77.13;95917.63;5073964;28;20056;-66
2023/04/15 06:43:04;;;;;;;14.52;8.65;;;;;;;14.14;79.87;95920.56;5073859;28;20051;-64
2023/04/15 06:45:33;;;;;;;15.13;10.30;;;;;;;13.98;80.13;95920.69;5073794;28;20158;-68
2023/04/15 06:48:08;;;;;;;19.02;11.48;;;;;;;13.90;80.47;95923.78;5073777;28;20476;-65
2023/04/15 06:50:40;;;;;;;18.88;14.18;;;;;;;13.80;81.24;95929.69;5073843;28;20075;-68
2023/04/15 06:53:10;;;;;;;18.55;14.02;;;;;;;13.69;82.76;95932.97;5072908;28;20489;-66
2023/04/15 06:55:39;;;;;;;21.83;14.65;;;;;;;13.66;82.41;95923.47;5073799;28;20516;-65
2023/04/15 06:58:06;;;;;;;23.77;17.25;;;;;;;13.68;83.25;95929.50;5073772;28;20048;-67
2023/04/15 07:00:38;;;;;;;21.88;14.90;;;;;;;13.62;83.12;95929.84;5073713;28;20056;-65
2023/04/15 07:03:05;;;;;;;17.65;14.35;;;;;;;13.88;84.69;95927.44;5073539;28;20401;-67
2023/04/15 07:05:34;;;;;;;18.17;14.10;;;;;;;14.11;84.49;95931.28;5073756;28;20132;-64
2023/04/15 07:08:01;;;;;;;23.02;14.65;;;;;;;14.26;82.15;95931.25;5073630;28;20055;-69
2023/04/15 07:10:32;;;;;;;13.77;11.00;;;;;;;14.49;78.57;95944.75;5073517;28;20131;-65
2023/04/15 07:13:09;;;;;;;16.92;10.90;;;;;;;14.47;72.89;95946.63;5073401;28;20068;-66
2023/04/15 07:15:36;;;;;;;15.60;11.07;;;;;;;14.84;75.15;95956.63;5073344;28;20044;-68
2023/04/15 07:18:04;;;;;;;13.15;9.88;;;;;;;14.92;68.98;95962.22;5073360;28;20041;-68
2023/04/15 07:20:31;;;;;;;11.60;10.48;;;;;;;14.80;64.09;95960.38;5073508;28;20490;-65
2023/04/15 07:22:59;;;;;;;12.77;9.80;;;;;;;14.55;66.78;95965.41;5073365;28;20137;-68
2023/04/15 07:25:26;;;;;;;11.35;10.23;;;;;;;14.24;70.20;95967.34;5073742;28;20045;-68
2023/04/15 07:27:57;;;;;;;14.18;9.90;;;;;;;13.96;71.30;95969.88;5073250;28;20482;-68
2023/04/15 07:30:25;;;;;;;12.32;10.35;;;;;;;13.61;73.05;95981.56;5073356;28;20645;-68
2023/04/15 07:32:53;;;;;;;11.35;9.60;;;;;;;13.54;71.73;95982.84;5073453;28;20083;-68
2023/04/15 07:35:22;;;;;;;13.90;11.43;;;;;;;13.57;73.08;95974.78;5073376;28;20055;-68
2023/04/15 07:37:50;;;;;;;13.98;9.85;;;;;;;13.63;71.59;95974.44;5073466;28;20143;-67
2023/04/15 07:40:17;;;;;;;21.80;12.77;;;;;;;13.84;74.71;95978.47;5073112;28;20041;-67
2023/04/15 07:42:48;;;;;;;22.10;12.98;;;;;;;14.02;78.62;95973.91;5073184;28;20414;-68
2023/04/15 07:45:17;;;;;;;17.13;10.35;;;;;;;14.07;78.46;95984.16;5073075;28;20060;-65
2023/04/15 07:47:45;;;;;;;14.00;10.00;;;;;;;14.02;78.28;95982.66;5072839;28;20059;-66
2023/04/15 07:50:12;;;;;;;14.15;9.88;;;;;;;14.05;77.82;95989.50;5073030;28;20490;-67
2023/04/15 07:52:40;;;;;;;16.50;8.70;;;;;;;13.92;77.58;95986.78;5072843;28;20486;-64
2023/04/15 07:55:08;;;;;;;11.63;8.07;;;;;;;13.82;77.54;95989.09;5073105;28;20051;-67
2023/04/15 07:57:36;;;;;;;12.77;7.43;;;;;;;13.86;73.29;95995.88;5073092;28;20579;-64
2023/04/15 08:00:06;;;;;;;16.25;8.73;;;;;;;14.00;73.29;95996.84;5072892;28;20049;-67
2023/04/15 08:02:36;;;;;;;10.77;8.52;;;;;;;14.03;71.64;95999.28;5072827;28;20057;-67
2023/04/15 08:05:03;;;;;;;12.40;9.23;;;;;;;13.93;71.08;96006.84;5077008;28;20124;-67
2023/04/15 08:07:31;;;;;;;10.77;7.88;;;;;;;13.91;70.17;96003.50;5076936;28;20048;-65
2023/04/15 08:09:58;;;;;;;15.73;9.70;;;;;;;14.00;70.83;96015.25;5076902;28;20045;-66
2023/04/15 08:12:26;;;;;;;12.45;8.68;;;;;;;14.02;69.89;96000.19;5076820;28;20478;-67
2023/04/15 08:14:56;;;;;;;12.57;9.10;;;;;;;14.11;70.16;95998.78;5076808;28;20114;-67
2023/04/15 08:17:23;;;;;;;15.52;9.05;;;;;;;14.40;69.47;95998.78;5076683;28;20045;-69
2023/04/15 08:19:52;;;;;;;11.40;9.00;;;;;;;14.65;66.86;96003.38;5076747;28;20510;-65
2023/04/15 08:22:20;;;;;;;17.42;10.65;;;;;;;14.71;69.96;96003.91;5076832;28;20076;-68
2023/04/15 08:24:47;;;;;;;15.15;9.60;;;;;;;15.02;69.02;96008.09;5076952;28;20044;-65
2023/04/15 08:27:14;;;;;;;9.98;8.43;;;;;;;15.41;64.19;96002.09;5076570;28;20045;-68
2023/04/15 08:29:42;;;;;;;10.38;9.27;;;;;;;15.98;65.38;96004.56;5076557;28;20040;-65
2023/04/15 08:32:09;;;;;;;12.55;9.18;;;;;;;16.55;66.78;96002.38;5076534;28;20041;-67
2023/04/15 08:34:36;;;;;;;12.13;8.77;;;;;;;17.24;64.41;96000.16;5076524;28;20111;-64
2023/04/15 08:37:05;;;;;;;12.00;8.43;;;;;;;17.63;61.35;96003.44;5076295;28;20054;-67
2023/04/15 08:39:33;;;;;;;11.77;9.43;;;;;;;18.10;60.98;96001.75;5076237;28;20494;-67
2023/04/15 08:42:02;;;;;;;9.20;8.00;;;;;;;18.43;59.27;96008.06;5076253;28;20497;-65
2023/04/15 08:44:31;;;;;;;8.93;7.28;;;;;;;18.68;56.34;96009.63;5076222;28;20127;-66
2023/04/15 08:47:02;;;;;;;12.30;7.10;;;;;;;18.54;54.08;96008.03;5076007;28;20414;-65
2023/04/15 08:49:30;;;;;;;9.15;7.38;;;;;;;18.86;54.91;96001.16;5076215;28;20044;-67
2023/04/15 08:52:00;;;;;;;12.02;6.53;;;;;;;18.61;51.22;96002.25;5076178;28;20045;-64
2023/04/15 08:54:31;;;;;;;12.32;8.40;;;;;;;18.61;54.49;96002.25;5076117;28;20059;-65
2023/04/15 08:56:58;;;;;;;10.23;7.65;;;;;;;18.73;52.54;96006.59;5076011;28;20127;-67
2023/04/15 08:59:27;;;;;;;9.90;7.45;;;;;;;18.89;51.65;96002.69;5076216;28;20052;-66
2023/04/15 09:01:55;;;;;;;11.40;7.68;;;;;;;18.99;51.96;96003.66;5075770;28;20048;-65
2023/04/15 09:04:23;;;;;;;14.93;7.25;;;;;;;19.13;52.35;95999.91;5076110;28;20056;-67
2023/04/15 09:06:51;;;;;;;11.07;6.75;;;;;;;19.30;49.67;95997.69;5075950;28;20048;-65
2023/04/15 09:09:18;;;;;;;10.48;6.60;;;;;;;19.02;49.34;95994.63;5075770;28;20049;-68
2023/04/15 09:11:48;;;;;;;14.90;6.57;;;;;;;18.61;50.68;95996.97;5075901;28;20079;-65
2023/04/15 09:14:16;;;;;;;9.07;6.05;;;;;;;17.89;51.26;96000.66;5075466;28;20084;-66
2023/04/15 09:16:59;;;;;;;12.45;6.15;;;;;;;17.74;49.73;95992.06;5075246;28;20500;-66
2023/04/15 09:19:27;;;;;;;14.13;6.65;;;;;;;18.00;51.92;95977.81;5075511;28;20090;-67
2023/04/15 09:21:56;;;;;;;9.23;6.50;;;;;;;17.97;50.03;95988.63;5075635;28;20040;-66
2023/04/15 09:24:25;;;;;;;7.70;5.82;;;;;;;17.40;51.17;95986.69;5075588;28;20045;-66
2023/04/15 09:26:55;;;;;;;10.15;6.22;;;;;;;17.32;52.34;95981.97;5075513;28;20053;-67
2023/04/15 09:29:25;;;;;;;17.10;8.15;;;;;;;17.64;56.90;95977.88;5075385;28;20131;-69
2023/04/15 09:31:54;;;;;;;12.02;7.03;;;;;;;17.76;55.27;95973.44;5075413;28;20060;-66
2023/04/15 09:34:22;;;;;;;12.82;6.05;;;;;;;17.74;54.27;95978.84;5075273;28;20048;-69
2023/04/15 09:36:57;;;;;;;7.32;6.20;;;;;;;17.61;52.38;95986.03;5075300;28;20375;-68
2023/04/15 09:39:24;;;;;;;10.30;7.35;;;;;;;17.62;55.09;95988.56;5075231;28;20110;-65
2023/04/15 09:42:08;;;;;;;11.50;6.85;;;;;;;17.63;53.46;95986.72;5075585;28;20053;-68
2023/04/15 09:44:35;;;;;;;11.05;6.85;;;;;;;17.73;53.48;95981.59;5075034;28;20100;-65
2023/04/15 09:47:03;;;;;;;13.60;6.75;;;;;;;17.80;52.96;95980.19;5075103;28;20056;-68
2023/04/15 09:49:30;;;;;;;15.05;7.35;;;;;;;17.60;55.00;95973.75;5075127;28;20052;-66
2023/04/15 09:52:01;;;;;;;6.68;5.45;;;;;;;17.53;52.83;95968.09;5075020;28;20044;-68
2023/04/15 09:54:39;;;;;;;10.68;5.72;;;;;;;17.62;54.74;95959.47;5075034;28;20049;-69
2023/04/15 09:57:08;;;;;;;13.00;4.93;;;;;;;17.67;52.52;95959.13;5074942;28;20048;-66
2023/04/15 09:59:36;;;;;;;7.90;4.82;;;;;;;17.70;51.93;95960.69;5075097;28;20048;-68
2023/04/15 10:02:06;;;;;;;7.43;4.53;;;;;;;17.92;55.10;95955.44;5075167;28;20478;-67
2023/04/15 10:04:37;;;;;;;7.25;3.80;;;;;;;18.35;53.34;95960.16;5074762;28;20044;-66
2023/04/15 10:07:06;;;;;;;6.88;3.78;;;;;;;18.64;52.21;95949.91;5074665;28;20397;-65
2023/04/15 10:09:35;;;;;;;14.20;4.47;;;;;;;18.54;52.32;95964.81;5074607;28;20056;-66
2023/04/15 10:12:04;;;;;;;6.53;4.20;;;;;;;18.61;50.05;95974.00;5074628;28;20453;-68
2023/04/15 10:14:37;;;;;;;11.25;5.63;;;;;;;18.48;50.10;95962.69;5074534;28;20090;-67
2023/04/15 10:17:05;;;;;;;8.23;4.25;;;;;;;18.35;49.98;95962.78;5074532;28;20049;-66
2023/04/15 10:19:36;;;;;;;12.30;4.50;;;;;;;18.48;51.96;95958.22;5074586;28;20127;-69
2023/04/15 10:22:04;;;;;;;5.93;3.83;;;;;;;18.64;50.65;95955.22;5074470;28;20044;-66
2023/04/15 10:24:34;;;;;;;8.20;4.00;;;;;;;18.70;52.16;95951.22;5074320;28;20052;-67
2023/04/15 10:27:04;;;;;;;5.50;3.10;;;;;;;18.78;49.42;95948.78;5073236;28;20053;-67
2023/04/15 10:29:33;;;;;;;5.65;3.35;;;;;;;18.82;49.08;95958.16;5074187;28;20067;-66
2023/04/15 10:32:01;;;;;;;5.03;2.78;;;;;;;18.77;48.39;95956.84;5074167;28;20110;-70
2023/04/15 10:34:30;;;;;;;3.58;2.60;;;;;;;18.77;45.33;95959.50;5074070;28;20514;-66
2023/04/15 10:37:02;;;;;;;9.23;2.55;;;;;;;18.82;43.88;95941.44;5074142;28;20440;-65
2023/04/15 10:39:44;;;;;;;4.28;2.70;;;;;;;18.78;46.07;95947.97;5074245;28;20141;-67
2023/04/15 10:42:12;;;;;;;8.07;3.03;;;;;;;18.68;47.19;95940.75;5074129;28;20048;-67
2023/04/15 10:44:43;;;;;;;7.25;3.10;;;;;;;18.52;49.97;95933.19;5073977;28;20501;-68
2023/04/15 10:47:12;;;;;;;10.50;2.95;;;;;;;18.74;50.59;95927.97;5073877;28;20074;-65
2023/04/15 10:49:50;;;;;;;6.82;2.78;;;;;;;19.00;49.89;95940.91;5073779;28;20048;-67
2023/04/15 10:52:18;;;;;;;8.70;2.38;;;;;;;19.00;47.53;95941.75;5073905;28;20135;-68
2023/04/15 10:54:46;;;;;;;2.65;2.10;;;;;;;19.29;45.00;95946.47;5073895;28;20055;-67
2023/04/15 10:57:22;;;;;;;4.07;2.20;;;;;;;19.08;40.26;95949.09;5073699;28;20056;-70
2023/04/15 11:00:19;;;;;;;4.03;2.50;;;;;;;18.89;48.54;95939.97;5073655;28;20454;-69
2023/04/15 11:02:48;;;;;;;7.38;3.17;;;;;;;18.92;47.23;95937.06;5049674;28;20040;-65
2023/04/15 11:05:15;;;;;;;5.93;2.65;;;;;;;18.88;45.17;95943.59;5073675;28;20044;-68
2023/04/15 11:07:55;;;;;;;8.05;2.50;;;;;;;18.68;44.58;95948.69;5073649;28;20504;-67
2023/04/15 11:10:56;;;;;;;12.07;2.30;;;;;;;18.74;49.86;95938.56;5073533;28;20059;-67
2023/04/15 11:13:31;;;;;;;5.07;2.40;;;;;;;18.79;45.34;95949.63;5073477;28;20048;-66
2023/04/15 11:16:01;;;;;;;7.88;3.08;;;;;;;18.94;46.57;95940.41;5073518;28;20087;-66
2023/04/15 11:18:31;;;;;;;3.67;2.83;;;;;;;18.84;45.15;95936.03;5073679;28;20106;-67
2023/04/15 11:21:02;;;;;;;7.18;2.95;;;;;;;18.86;46.17;95940.22;5073468;28;20049;-67
2023/04/15 11:23:32;;;;;;;6.18;2.95;;;;;;;18.82;49.83;95936.97;5073360;28;20048;-68
2023/04/15 11:26:01;;;;;;;6.63;2.58;;;;;;;18.67;44.12;95932.91;5073456;28;20098;-68
2023/04/15 11:28:30;;;;;;;3.85;2.70;;;;;;;18.73;46.04;95932.44;5073312;28;20048;-67
2023/04/15 11:30:58;;;;;;;7.32;3.15;;;;;;;18.83;44.82;95935.16;5073177;28;20093;-69
2023/04/15 11:33:28;;;;;;;4.47;2.40;;;;;;;19.05;47.88;95922.78;5073242;28;20044;-66
2023/04/15 11:35:56;;;;;;;5.85;2.05;;;;;;;19.27;44.55;95934.31;5073183;28;20460;-68